createdAt,value
2023-04-03T00:01:35.457Z,4.83
2023-04-03T00:04:09.965Z,4.88
2023-04-03T00:06:42.960Z,4.83
2023-04-03T00:09:15.298Z,4.78
2023-04-03T00:11:47.586Z,4.81
2023-04-03T00:14:19.994Z,4.77
2023-04-03T00:16:52.333Z,4.79
2023-04-03T00:19:24.706Z,4.76
2023-04-03T00:21:57.712Z,4.63
2023-04-03T00:24:30.010Z,4.64
2023-04-03T00:27:02.310Z,4.53
2023-04-03T00:29:34.973Z,4.57
2023-04-03T00:32:07.267Z,4.53
2023-04-03T00:34:39.670Z,4.53
2023-04-03T00:37:12.659Z,4.50
2023-04-03T00:39:44.942Z,4.47
2023-04-03T00:42:17.661Z,4.41
2023-04-03T00:45:29.409Z,4.56
2023-04-03T00:48:06.705Z,4.34
2023-04-03T00:50:41.863Z,4.42
2023-04-03T00:53:18.484Z,4.31
2023-04-03T00:55:52.768Z,4.28
2023-04-03T00:58:34.040Z,4.22
2023-04-03T01:01:10.982Z,4.20
2023-04-03T01:03:43.397Z,4.23
2023-04-03T01:06:19.923Z,4.18
2023-04-03T01:08:55.591Z,4.21
2023-04-03T01:11:28.027Z,4.21
2023-04-03T01:14:02.150Z,4.21
2023-04-03T01:16:35.120Z,4.06
2023-04-03T01:19:15.213Z,3.93
2023-04-03T01:22:03.695Z,3.83
2023-04-03T01:24:39.204Z,3.97
2023-04-03T01:27:13.756Z,4.01
2023-04-03T01:29:46.652Z,4.04
2023-04-03T01:32:19.697Z,4.08
2023-04-03T01:34:52.046Z,4.07
2023-04-03T01:37:24.354Z,4.06
2023-04-03T01:39:56.938Z,4.08
2023-04-03T01:42:29.827Z,4.01
2023-04-03T01:45:02.253Z,4.03
2023-04-03T01:47:35.531Z,4.04
2023-04-03T01:50:08.481Z,4.06
2023-04-03T01:52:40.908Z,4.03
2023-04-03T01:55:13.269Z,3.97
2023-04-03T01:57:45.624Z,3.94
2023-04-03T02:00:18.289Z,3.97
2023-04-03T02:02:51.324Z,3.93
2023-04-03T02:05:23.906Z,3.85
2023-04-03T02:07:56.682Z,3.86
2023-04-03T02:10:29.074Z,3.76
2023-04-03T02:13:02.654Z,3.80
2023-04-03T02:15:34.986Z,3.72
2023-04-03T02:18:08.353Z,3.72
2023-04-03T02:20:40.683Z,3.69
2023-04-03T02:23:13.052Z,3.67
2023-04-03T02:25:45.644Z,3.45
2023-04-03T02:28:17.935Z,3.55
2023-04-03T02:30:50.238Z,3.53
2023-04-03T02:33:23.272Z,3.52
2023-04-03T02:35:57.424Z,3.49
2023-04-03T02:38:30.014Z,3.41
2023-04-03T02:41:03.214Z,3.41
2023-04-03T02:43:37.688Z,3.40
2023-04-03T02:46:11.105Z,3.40
2023-04-03T02:48:44.080Z,3.27
2023-04-03T02:51:16.387Z,3.21
2023-04-03T02:53:48.771Z,3.26
2023-04-03T02:56:25.003Z,3.28
2023-04-03T02:58:57.303Z,3.13
2023-04-03T03:01:31.865Z,3.27
2023-04-03T03:04:04.907Z,3.21
2023-04-03T03:06:37.347Z,3.18
2023-04-03T03:09:09.736Z,3.26
2023-04-03T03:11:52.201Z,3.33
2023-04-03T03:14:24.676Z,3.33
2023-04-03T03:16:57.002Z,3.26
2023-04-03T03:19:30.131Z,3.31
2023-04-03T03:22:02.943Z,3.41
2023-04-03T03:24:35.239Z,3.42
2023-04-03T03:27:07.487Z,3.18
2023-04-03T03:29:39.892Z,3.33
2023-04-03T03:32:12.375Z,3.10
2023-04-03T03:34:45.498Z,3.18
2023-04-03T03:37:17.808Z,3.25
2023-04-03T03:39:50.140Z,3.22
2023-04-03T03:42:22.951Z,3.13
2023-04-03T03:44:55.843Z,3.11
2023-04-03T03:47:28.210Z,3.16
2023-04-03T03:50:01.640Z,3.23
2023-04-03T03:52:34.254Z,3.21
2023-04-03T03:55:07.646Z,3.22
2023-04-03T03:57:42.120Z,3.12
2023-04-03T04:00:16.607Z,3.07
2023-04-03T04:02:53.196Z,3.25
2023-04-03T04:05:28.966Z,3.34
2023-04-03T04:08:01.466Z,3.51
2023-04-03T04:10:34.254Z,3.54
2023-04-03T04:13:06.780Z,3.71
2023-04-03T04:15:39.613Z,3.83
2023-04-03T04:18:12.510Z,3.98
2023-04-03T04:20:47.599Z,4.07
2023-04-03T04:23:21.964Z,4.12
2023-04-03T04:25:55.674Z,4.13
2023-04-03T04:28:28.454Z,4.26
2023-04-03T04:31:02.526Z,4.37
2023-04-03T04:33:35.982Z,4.46
2023-04-03T04:36:11.301Z,4.57
2023-04-03T04:38:44.518Z,4.69
2023-04-03T04:41:18.051Z,4.77
2023-04-03T04:43:50.750Z,4.74
2023-04-03T04:46:23.679Z,4.80
2023-04-03T04:49:00.990Z,4.83
2023-04-03T04:51:48.323Z,4.91
2023-04-03T04:54:26.258Z,5.03
2023-04-03T04:56:59.120Z,5.07
2023-04-03T04:59:32.606Z,5.10
2023-04-03T05:02:05.072Z,5.10
2023-04-03T05:04:37.789Z,5.14
2023-04-03T05:07:16.260Z,5.27
2023-04-03T05:09:48.646Z,5.28
2023-04-03T05:12:22.963Z,5.42
2023-04-03T05:15:01.110Z,5.52
2023-04-03T05:17:35.604Z,5.56
2023-04-03T05:20:09.917Z,5.54
2023-04-03T05:22:43.270Z,5.64
2023-04-03T05:25:16.196Z,5.70
2023-04-03T05:27:50.263Z,5.78
2023-04-03T05:30:23.136Z,5.86
2023-04-03T05:32:55.906Z,5.97
2023-04-03T05:35:39.746Z,6.04
2023-04-03T05:38:13.203Z,6.09
2023-04-03T05:40:45.743Z,6.03
2023-04-03T05:43:18.105Z,6.08
2023-04-03T05:45:51.814Z,6.05
2023-04-03T05:48:26.163Z,6.07
2023-04-03T05:50:59.383Z,6.03
2023-04-03T05:53:37.159Z,6.08
2023-04-03T05:56:11.193Z,6.16
2023-04-03T05:58:45.950Z,6.21
2023-04-03T06:01:18.318Z,6.28
2023-04-03T06:03:51.204Z,6.34
2023-04-03T06:06:24.067Z,6.34
2023-04-03T06:08:57.424Z,6.36
2023-04-03T06:11:30.333Z,6.39
2023-04-03T06:14:03.437Z,6.37
2023-04-03T06:16:38.077Z,6.36
2023-04-03T06:19:13.504Z,6.38
2023-04-03T06:21:51.143Z,6.42
2023-04-03T06:24:25.479Z,6.56
2023-04-03T06:26:58.795Z,6.50
2023-04-03T06:29:31.496Z,6.46
2023-04-03T06:32:03.769Z,6.50
2023-04-03T06:34:36.038Z,6.49
2023-04-03T06:37:11.553Z,6.54
2023-04-03T06:39:45.508Z,6.58
2023-04-03T06:42:17.991Z,6.67
2023-04-03T06:45:00.987Z,6.71
2023-04-03T06:47:33.394Z,6.77
2023-04-03T06:50:07.571Z,6.84
2023-04-03T06:52:40.434Z,6.89
2023-04-03T06:55:13.661Z,6.95
2023-04-03T06:57:45.901Z,6.96
2023-04-03T07:00:19.201Z,6.97
2023-04-03T07:02:51.881Z,7.11
2023-04-03T07:05:25.094Z,7.03
2023-04-03T07:07:57.400Z,7.09
2023-04-03T07:10:31.039Z,7.09
2023-04-03T07:13:03.691Z,7.17
2023-04-03T07:15:37.565Z,7.24
2023-04-03T07:18:10.723Z,7.31
2023-04-03T07:20:43.208Z,7.33
2023-04-03T07:23:15.698Z,7.41
2023-04-03T07:25:50.412Z,7.49
2023-04-03T07:28:23.519Z,7.44
2023-04-03T07:31:04.997Z,7.52
2023-04-03T07:33:38.395Z,7.50
2023-04-03T07:36:15.960Z,7.79
2023-04-03T07:38:48.927Z,7.80
2023-04-03T07:41:23.259Z,7.97
2023-04-03T07:43:56.869Z,8.09
2023-04-03T07:46:29.208Z,8.03
2023-04-03T07:49:02.091Z,8.13
2023-04-03T07:51:35.025Z,8.24
2023-04-03T07:54:07.390Z,8.48
2023-04-03T07:56:40.405Z,8.48
2023-04-03T07:59:12.727Z,8.55
2023-04-03T08:01:45.040Z,8.52
2023-04-03T08:04:17.440Z,8.55
2023-04-03T08:06:49.835Z,8.58
2023-04-03T08:09:22.442Z,8.44
2023-04-03T08:11:55.589Z,8.44
2023-04-03T08:14:27.922Z,8.39
2023-04-03T08:17:00.903Z,8.44
2023-04-03T08:19:33.355Z,8.50
2023-04-03T08:22:06.531Z,8.65
2023-04-03T08:24:39.400Z,8.67
2023-04-03T08:27:16.669Z,8.62
2023-04-03T08:29:49.104Z,8.52
2023-04-03T08:32:21.461Z,8.57
2023-04-03T08:34:53.940Z,8.54
2023-04-03T08:37:26.812Z,8.52
2023-04-03T08:39:59.551Z,8.57
2023-04-03T08:42:44.423Z,8.57
2023-04-03T08:45:22.338Z,8.57
2023-04-03T08:48:01.598Z,8.70
2023-04-03T08:50:39.984Z,8.67
2023-04-03T08:53:16.344Z,8.68
2023-04-03T08:55:50.746Z,8.68
2023-04-03T08:58:26.928Z,8.61
2023-04-03T09:01:01.965Z,8.57
2023-04-03T09:03:38.887Z,8.63
2023-04-03T09:06:15.576Z,8.48
2023-04-03T09:08:52.346Z,8.49
2023-04-03T09:11:27.776Z,8.58
2023-04-03T09:14:08.153Z,8.60
2023-04-03T09:16:57.159Z,8.61
2023-04-03T09:19:42.242Z,8.69
2023-04-03T09:22:18.078Z,8.74
2023-04-03T09:24:58.394Z,8.79
2023-04-03T09:27:31.047Z,8.80
2023-04-03T09:30:07.183Z,8.90
2023-04-03T09:32:39.542Z,9.02
2023-04-03T09:35:23.487Z,9.27
2023-04-03T09:38:15.432Z,9.27
2023-04-03T09:40:51.455Z,9.15
2023-04-03T09:43:29.495Z,9.19
2023-04-03T09:46:29.637Z,9.42
2023-04-03T09:49:09.299Z,9.60
2023-04-03T09:51:41.992Z,9.70
2023-04-03T09:54:30.993Z,9.68
2023-04-03T09:57:08.970Z,9.78
2023-04-03T09:59:48.994Z,9.85
2023-04-03T10:02:24.096Z,9.86
2023-04-03T10:05:08.952Z,9.78
2023-04-03T10:07:48.692Z,9.80
2023-04-03T10:10:26.922Z,9.77
2023-04-03T10:13:06.347Z,9.84
2023-04-03T10:15:45.265Z,9.78
2023-04-03T10:18:33.921Z,9.93
2023-04-03T10:21:24.704Z,9.96
2023-04-03T10:24:09.357Z,9.99
2023-04-03T10:26:50.854Z,9.96
2023-04-03T10:29:34.858Z,10.07
2023-04-03T10:32:44.071Z,10.18
2023-04-03T10:35:29.566Z,10.06
2023-04-03T10:38:10.327Z,10.03
2023-04-03T10:40:51.037Z,9.90
2023-04-03T10:43:33.720Z,10.05
2023-04-03T10:46:13.273Z,10.11
2023-04-03T10:49:06.235Z,10.27
2023-04-03T10:51:44.212Z,10.36
2023-04-03T10:54:24.215Z,10.32
2023-04-03T10:57:11.665Z,10.06
2023-04-03T10:59:47.946Z,10.13
2023-04-03T11:02:25.266Z,10.27
2023-04-03T11:05:02.854Z,10.42
2023-04-03T11:07:41.567Z,10.39
2023-04-03T11:10:19.694Z,10.32
2023-04-03T11:12:57.496Z,10.36
2023-04-03T11:15:33.812Z,9.99
2023-04-03T11:18:12.260Z,10.08
2023-04-03T11:20:53.080Z,10.00
2023-04-03T11:23:35.587Z,9.83
2023-04-03T11:26:14.773Z,9.58
2023-04-03T11:28:47.323Z,9.46
2023-04-03T11:31:41.843Z,9.41
2023-04-03T11:34:31.920Z,9.32
2023-04-03T11:37:13.272Z,9.11
2023-04-03T11:39:55.761Z,8.81
2023-04-03T11:42:34.609Z,8.73
2023-04-03T11:45:35.683Z,8.64
2023-04-03T11:49:05.949Z,8.61
2023-04-03T11:55:58.289Z,8.02
2023-04-03T11:58:55.167Z,7.96
2023-04-03T12:02:04.870Z,7.89
2023-04-03T12:05:46.890Z,7.84
2023-04-03T12:08:48.176Z,7.77
2023-04-03T12:11:39.074Z,7.67
2023-04-03T12:14:52.200Z,7.72
2023-04-03T12:17:44.018Z,7.79
2023-04-03T12:21:10.746Z,7.81
2023-04-03T12:24:22.984Z,7.84
2023-04-03T12:27:29.460Z,7.75
2023-04-03T12:30:43.759Z,7.58
2023-04-03T12:37:08.951Z,7.48
2023-04-03T12:40:15.744Z,7.27
2023-04-03T12:43:22.241Z,7.21
2023-04-03T12:46:16.536Z,7.13
2023-04-03T12:49:04.998Z,6.91
2023-04-03T12:51:55.377Z,6.84
2023-04-03T12:54:36.710Z,6.84
2023-04-03T12:57:37.285Z,6.77
2023-04-03T13:00:40.678Z,6.72
2023-04-03T13:03:33.543Z,6.69
2023-04-03T13:06:26.600Z,6.77
2023-04-03T13:09:24.796Z,6.65
2023-04-03T13:12:20.318Z,6.63
2023-04-03T13:15:04.646Z,6.56
2023-04-03T13:17:53.659Z,6.50
2023-04-03T13:20:52.422Z,6.44
2023-04-03T13:23:31.160Z,6.34
2023-04-03T13:26:16.199Z,6.39
2023-04-03T13:28:53.872Z,6.24
2023-04-03T13:31:30.970Z,6.16
2023-04-03T13:34:07.218Z,6.17
2023-04-03T13:36:42.992Z,6.14
2023-04-03T13:39:24.201Z,6.03
2023-04-03T13:41:59.252Z,6.00
2023-04-03T13:44:36.933Z,5.99
2023-04-03T13:47:19.021Z,5.92
2023-04-03T13:50:04.574Z,5.84
2023-04-03T13:52:42.916Z,5.81
2023-04-03T13:55:25.815Z,5.70
2023-04-03T13:58:02.198Z,5.72
2023-04-03T14:00:38.757Z,5.71
2023-04-03T14:03:20.376Z,5.66
2023-04-03T14:05:53.563Z,5.71
2023-04-03T14:08:39.617Z,5.69
2023-04-03T14:11:16.851Z,5.76
2023-04-03T14:13:50.630Z,5.74
2023-04-03T14:16:27.568Z,5.75
2023-04-03T14:19:00.148Z,5.75
2023-04-03T14:21:33.094Z,5.44
2023-04-03T14:24:06.819Z,5.47
2023-04-03T14:26:39.391Z,5.59
2023-04-03T14:29:12.794Z,5.54
2023-04-03T14:31:47.565Z,5.54
2023-04-03T14:34:20.037Z,5.57
2023-04-03T14:36:54.059Z,5.55
2023-04-03T14:39:27.275Z,5.56
2023-04-03T14:41:59.818Z,5.57
2023-04-03T14:44:32.226Z,5.49
2023-04-03T14:47:04.733Z,5.39
2023-04-03T14:49:40.057Z,5.34
2023-04-03T14:52:19.626Z,5.38
2023-04-03T14:54:54.245Z,5.51
2023-04-03T14:57:28.567Z,5.43
2023-04-03T15:00:03.059Z,5.31
2023-04-03T15:02:37.883Z,5.28
2023-04-03T15:05:11.913Z,5.37
2023-04-03T15:07:47.970Z,5.35
2023-04-03T15:10:23.931Z,5.41
2023-04-03T15:12:57.585Z,5.30
2023-04-03T15:15:30.781Z,5.30
2023-04-03T15:18:03.470Z,5.35
2023-04-03T15:20:35.960Z,5.30
2023-04-03T15:23:09.507Z,5.33
2023-04-03T15:25:43.483Z,5.31
2023-04-03T15:28:22.793Z,5.29
2023-04-03T15:30:55.554Z,5.20
2023-04-03T15:33:28.402Z,5.27
2023-04-03T15:36:07.396Z,5.18
2023-04-03T15:38:44.279Z,5.30
2023-04-03T15:41:17.362Z,5.28
2023-04-03T15:43:49.676Z,5.22
2023-04-03T15:46:22.135Z,5.27
2023-04-03T15:48:54.801Z,5.18
2023-04-03T15:51:27.128Z,5.23
2023-04-03T15:53:59.475Z,5.17
2023-04-03T15:56:32.628Z,5.28
2023-04-03T15:59:05.063Z,5.19
2023-04-03T16:01:39.224Z,5.27
2023-04-03T16:04:11.909Z,5.28
2023-04-03T16:06:44.536Z,5.21
2023-04-03T16:09:17.315Z,5.42
2023-04-03T16:11:56.534Z,5.33
2023-04-03T16:14:30.701Z,5.32
2023-04-03T16:17:04.014Z,5.22
2023-04-03T16:19:36.454Z,5.30
2023-04-03T16:22:09.081Z,5.22
2023-04-03T16:24:41.514Z,5.18
2023-04-03T16:27:14.801Z,5.18
2023-04-03T16:29:47.505Z,5.09
2023-04-03T16:32:20.149Z,5.13
2023-04-03T16:34:52.968Z,4.91
2023-04-03T16:37:27.100Z,4.94
2023-04-03T16:40:01.377Z,4.84
2023-04-03T16:42:37.235Z,4.83
2023-04-03T16:45:11.484Z,4.87
2023-04-03T16:47:44.002Z,4.82
2023-04-03T16:50:16.701Z,4.74
2023-04-03T16:52:49.370Z,4.75
2023-04-03T16:55:21.839Z,4.70
2023-04-03T16:57:55.641Z,4.59
2023-04-03T17:00:28.269Z,4.57
2023-04-03T17:03:01.122Z,4.70
2023-04-03T17:05:33.648Z,4.74
2023-04-03T17:08:06.257Z,4.78
2023-04-03T17:10:39.643Z,4.82
2023-04-03T17:13:13.188Z,4.88
2023-04-03T17:15:45.771Z,4.88
2023-04-03T17:18:18.283Z,4.98
2023-04-03T17:20:50.661Z,4.97
2023-04-03T17:23:24.650Z,4.96
2023-04-03T17:25:57.191Z,4.85
2023-04-03T17:28:30.613Z,4.89
2023-04-03T17:31:03.710Z,4.95
2023-04-03T17:33:36.223Z,4.98
2023-04-03T17:36:08.901Z,4.87
2023-04-03T17:38:41.985Z,5.04
2023-04-03T17:41:15.292Z,4.92
2023-04-03T17:43:49.073Z,4.90
2023-04-03T17:46:22.396Z,4.93
2023-04-03T17:48:55.576Z,4.97
2023-04-03T17:51:33.566Z,5.05
2023-04-03T17:54:06.594Z,5.04
2023-04-03T17:56:39.153Z,4.98
2023-04-03T17:59:13.109Z,5.13
2023-04-03T18:01:47.431Z,5.11
2023-04-03T18:04:20.817Z,5.06
2023-04-03T18:06:56.066Z,4.84
2023-04-03T18:09:31.801Z,4.95
2023-04-03T18:12:07.692Z,5.00
2023-04-03T18:14:42.069Z,5.00
2023-04-03T18:17:16.103Z,4.92
2023-04-03T18:19:50.931Z,5.09
2023-04-03T18:22:25.421Z,5.16
2023-04-03T18:24:58.679Z,5.08
2023-04-03T18:27:31.803Z,5.10
2023-04-03T18:30:13.354Z,5.03
2023-04-03T18:32:49.909Z,4.93
2023-04-03T18:35:23.260Z,5.10
2023-04-03T18:37:56.717Z,4.99
2023-04-03T18:40:31.045Z,4.84
2023-04-03T18:43:03.663Z,4.96
2023-04-03T18:45:36.748Z,4.99
2023-04-03T18:48:09.929Z,5.06
2023-04-03T18:50:43.355Z,4.90
2023-04-03T18:53:16.014Z,5.04
2023-04-03T18:55:49.109Z,4.93
2023-04-03T18:58:21.780Z,4.96
2023-04-03T19:00:55.795Z,4.96
2023-04-03T19:03:31.051Z,4.88
2023-04-03T19:06:05.538Z,4.77
2023-04-03T19:08:39.141Z,4.76
2023-04-03T19:11:12.359Z,4.76
2023-04-03T19:14:03.816Z,4.77
2023-04-03T19:16:39.796Z,4.72
2023-04-03T19:19:12.985Z,4.80
2023-04-03T19:21:45.499Z,4.77
2023-04-03T19:24:17.987Z,4.80
2023-04-03T19:26:50.452Z,4.87
2023-04-03T19:29:22.822Z,4.83
2023-04-03T19:31:55.953Z,4.90
2023-04-03T19:34:28.871Z,4.89
2023-04-03T19:37:01.894Z,4.98
2023-04-03T19:39:36.494Z,4.96
2023-04-03T19:42:09.154Z,4.97
2023-04-03T19:44:42.967Z,4.96
2023-04-03T19:47:18.265Z,4.95
2023-04-03T19:49:50.678Z,4.90
2023-04-03T19:52:22.983Z,4.96
2023-04-03T19:54:55.311Z,4.84
2023-04-03T19:57:27.699Z,4.88
2023-04-03T20:00:00.387Z,4.80
2023-04-03T20:02:33.596Z,4.77
2023-04-03T20:05:07.104Z,4.80
2023-04-03T20:07:39.434Z,4.82
2023-04-03T20:10:11.760Z,4.93
2023-04-03T20:12:44.110Z,4.86
2023-04-03T20:15:17.570Z,4.92
2023-04-03T20:17:50.593Z,5.10
2023-04-03T20:20:22.971Z,5.14
2023-04-03T20:22:56.224Z,5.09
2023-04-03T20:25:48.109Z,5.15
2023-04-03T20:28:21.860Z,5.10
2023-04-03T20:30:55.028Z,5.13
2023-04-03T20:33:28.267Z,5.03
2023-04-03T20:36:01.763Z,5.04
2023-04-03T20:38:34.117Z,5.07
2023-04-03T20:41:07.080Z,4.95
2023-04-03T20:43:42.031Z,5.01
2023-04-03T20:46:18.641Z,5.04
2023-04-03T20:48:52.026Z,5.04
2023-04-03T20:51:24.493Z,5.03
2023-04-03T20:53:57.172Z,5.00
2023-04-03T20:56:32.389Z,5.00
2023-04-03T20:59:05.154Z,4.98
2023-04-03T21:01:37.953Z,5.00
2023-04-03T21:04:16.327Z,4.93
2023-04-03T21:07:26.715Z,4.90
2023-04-03T21:10:36.598Z,4.90
2023-04-03T21:13:46.429Z,4.86
2023-04-03T21:16:19.386Z,4.77
2023-04-03T21:19:06.108Z,4.79
2023-04-03T21:21:39.133Z,4.74
2023-04-03T21:24:12.497Z,4.74
2023-04-03T21:26:45.348Z,4.74
2023-04-03T21:29:17.728Z,4.60
2023-04-03T21:31:53.074Z,4.51
2023-04-03T21:34:27.334Z,4.45
2023-04-03T21:37:03.370Z,4.57
2023-04-03T21:39:35.959Z,4.62
2023-04-03T21:42:08.288Z,4.59
2023-04-03T21:44:40.866Z,4.65
2023-04-03T21:47:13.251Z,4.65
2023-04-03T21:49:46.914Z,4.64
2023-04-03T21:52:19.268Z,4.63
2023-04-03T21:54:51.912Z,4.64
2023-04-03T21:57:24.273Z,4.73
2023-04-03T21:59:56.716Z,4.64
2023-04-03T22:02:30.739Z,4.64
2023-04-03T22:05:04.237Z,4.62
2023-04-03T22:07:36.624Z,4.61
2023-04-03T22:10:09.113Z,4.56
2023-04-03T22:12:41.746Z,4.53
2023-04-03T22:15:14.179Z,4.58
2023-04-03T22:17:46.660Z,4.55
2023-04-03T22:20:19.925Z,4.65
2023-04-03T22:22:52.282Z,4.58
2023-04-03T22:25:24.983Z,4.55
2023-04-03T22:27:57.386Z,4.57
2023-04-03T22:30:30.118Z,4.54
2023-04-03T22:33:02.579Z,4.53
2023-04-03T22:35:35.671Z,4.64
2023-04-03T22:38:08.036Z,4.76
2023-04-03T22:40:40.674Z,4.86
2023-04-03T22:43:13.477Z,4.89
2023-04-03T22:45:49.570Z,4.87
2023-04-03T22:48:22.900Z,4.78
2023-04-03T22:50:56.162Z,5.01
2023-04-03T22:53:28.582Z,4.98
2023-04-03T22:56:02.242Z,4.91
2023-04-03T22:58:34.750Z,5.01
2023-04-03T23:01:09.397Z,4.93
2023-04-03T23:03:42.544Z,4.95
2023-04-03T23:06:15.693Z,4.90
2023-04-03T23:08:48.162Z,5.08
2023-04-03T23:11:20.736Z,5.18
2023-04-03T23:13:53.106Z,5.09
2023-04-03T23:16:25.726Z,5.12
2023-04-03T23:18:58.375Z,5.10
2023-04-03T23:21:31.545Z,5.03
2023-04-03T23:24:04.217Z,5.07
2023-04-03T23:26:36.692Z,5.12
2023-04-03T23:29:09.067Z,5.08
2023-04-03T23:31:41.574Z,5.01
2023-04-03T23:34:14.091Z,4.96
2023-04-03T23:36:47.461Z,5.03
2023-04-03T23:43:18.012Z,4.99
2023-04-03T23:45:50.907Z,4.96
2023-04-03T23:48:23.214Z,4.95
2023-04-03T23:50:55.533Z,5.00
2023-04-03T23:53:28.028Z,5.02
2023-04-03T23:56:01.052Z,5.02
2023-04-03T23:58:34.145Z,5.14
